Time;durP1;ratioP1;P1;durP2;ratioP2;P2;SDS_P1;SDS_P2;PMS_P1;PMS_P2;Temp;Humidity;BMP_temperature;BMP_pressure;BME280_temperature;BME280_humidity;BME280_pressure;Samples;Min_cycle;Max_cycle;Signal;HPM_P1;HPM_P2
2022/07/14 00:01:22;;;;;;;31.58;4.72;;;;;;;19.82;100.00;98162.31;5060356;28;20482;-58
2022/07/14 00:03:48;;;;;;;24.45;4.15;;;;;;;19.71;100.00;98167.53;5061785;28;20565;-58
2022/07/14 00:06:14;;;;;;;34.45;4.95;;;;;;;19.84;100.00;98168.31;5062433;28;20336;-58
2022/07/14 00:08:39;;;;;;;26.00;4.47;;;;;;;19.26;100.00;98168.25;5063698;28;20074;-58
2022/07/14 00:11:05;;;;;;;31.83;4.60;;;;;;;19.22;100.00;98171.22;5060592;28;20040;-58
2022/07/14 00:13:31;;;;;;;28.45;4.60;;;;;;;18.96;100.00;98173.97;5061501;28;20024;-58
2022/07/14 00:15:57;;;;;;;27.40;4.55;;;;;;;19.14;100.00;98176.22;5060589;28;20439;-60
2022/07/14 00:18:22;;;;;;;26.60;4.63;;;;;;;18.86;100.00;98173.78;5062483;28;20811;-59
2022/07/14 00:20:48;;;;;;;31.67;4.60;;;;;;;18.69;100.00;98174.09;5060645;28;20037;-58
2022/07/14 00:23:14;;;;;;;28.65;4.50;;;;;;;18.45;100.00;98171.41;5061663;28;20025;-58
2022/07/14 00:25:41;;;;;;;32.75;5.30;;;;;;;18.56;100.00;98173.31;5060410;28;20036;-59
2022/07/14 00:28:07;;;;;;;32.85;5.78;;;;;;;18.61;100.00;98169.38;5061398;28;20027;-59
2022/07/14 00:30:32;;;;;;;33.85;6.15;;;;;;;18.21;100.00;98169.53;5059616;28;20059;-59
2022/07/14 00:32:58;;;;;;;30.00;4.70;;;;;;;18.11;100.00;98169.34;5059874;28;20058;-59
2022/07/14 00:35:23;;;;;;;23.02;4.32;;;;;;;18.53;100.00;98163.81;5060914;28;20038;-58
2022/07/14 00:37:48;;;;;;;35.67;5.20;;;;;;;18.57;100.00;98160.00;5061100;28;20102;-57
2022/07/14 00:40:15;;;;;;;33.30;5.35;;;;;;;18.26;100.00;98162.16;5059580;28;20031;-58
2022/07/14 00:42:50;;;;;;;21.80;3.90;;;;;;;18.29;100.00;98166.38;5061272;28;20114;-57
2022/07/14 00:45:17;;;;;;;26.63;4.43;;;;;;;18.39;100.00;98166.56;5060692;28;20119;-59
2022/07/14 00:47:42;;;;;;;26.30;4.50;;;;;;;18.33;100.00;98162.56;5061063;28;20148;-57
2022/07/14 00:50:10;;;;;;;33.78;5.13;;;;;;;18.64;100.00;98155.97;5059904;28;20649;-58
2022/07/14 00:52:35;;;;;;;27.73;4.63;;;;;;;18.71;100.00;98160.78;5060699;28;20073;-57
2022/07/14 00:55:00;;;;;;;50.88;7.15;;;;;;;18.63;100.00;98159.53;5060100;28;20032;-58
2022/07/14 00:57:26;;;;;;;27.02;4.95;;;;;;;18.29;100.00;98154.03;5059726;28;20064;-58
2022/07/14 00:59:52;;;;;;;29.17;4.78;;;;;;;18.72;100.00;98150.13;5060201;28;20020;-58
2022/07/14 01:02:19;;;;;;;27.58;4.93;;;;;;;18.56;100.00;98153.00;5057783;28;20033;-58
2022/07/14 01:04:48;;;;;;;25.63;4.40;;;;;;;18.32;100.00;98150.31;5059569;28;20044;-58
2022/07/14 01:07:16;;;;;;;30.13;4.80;;;;;;;18.09;100.00;98154.56;5059859;28;20571;-60
2022/07/14 01:09:41;;;;;;;28.77;4.82;;;;;;;18.08;100.00;98153.69;5060681;28;20040;-58
2022/07/14 01:12:09;;;;;;;30.23;4.90;;;;;;;18.09;100.00;98154.56;5058730;28;20041;-57
2022/07/14 01:14:35;;;;;;;26.30;4.32;;;;;;;18.38;100.00;98159.59;5060254;28;20024;-57
2022/07/14 01:17:01;;;;;;;28.58;4.57;;;;;;;18.41;100.00;98164.66;5060173;28;20705;-58
2022/07/14 01:19:27;;;;;;;21.90;4.07;;;;;;;18.72;100.00;98159.84;5060260;28;20038;-57
2022/07/14 01:21:54;;;;;;;33.50;4.95;;;;;;;18.90;100.00;98161.19;5058681;28;20037;-58
2022/07/14 01:24:20;;;;;;;32.38;5.32;;;;;;;18.42;100.00;98171.66;5059583;28;20024;-58
2022/07/14 01:26:45;;;;;;;28.10;4.60;;;;;;;18.36;100.00;98172.06;5059353;28;20376;-58
2022/07/14 01:29:11;;;;;;;24.85;4.55;;;;;;;18.03;100.00;98163.75;5060335;28;20056;-59
2022/07/14 01:31:36;;;;;;;29.67;4.65;;;;;;;17.86;100.00;98164.06;5057816;28;20063;-57
2022/07/14 01:34:02;;;;;;;22.27;4.07;;;;;;;18.25;100.00;98155.19;5059933;28;20849;-57
2022/07/14 01:36:27;;;;;;;30.35;5.25;;;;;;;18.53;100.00;98152.38;5058190;28;20128;-58
2022/07/14 01:38:52;;;;;;;25.52;4.40;;;;;;;18.13;100.00;98144.66;5059386;28;20534;-58
2022/07/14 01:41:20;;;;;;;29.88;4.70;;;;;;;18.45;100.00;98151.16;5059936;28;20040;-58
2022/07/14 01:43:45;;;;;;;26.65;4.75;;;;;;;18.41;100.00;98148.81;5059017;28;20025;-58
2022/07/14 01:46:10;;;;;;;26.98;4.45;;;;;;;18.53;100.00;98147.09;5058899;28;20040;-57
2022/07/14 01:48:36;;;;;;;30.20;4.85;;;;;;;18.69;100.00;98148.56;5059580;28;20028;-57
2022/07/14 01:51:01;;;;;;;28.50;4.63;;;;;;;18.81;100.00;98148.66;5058117;28;20124;-57
2022/07/14 01:53:27;;;;;;;32.15;5.28;;;;;;;18.95;100.00;98147.63;5058908;28;20032;-58
2022/07/14 01:55:52;;;;;;;30.27;4.93;;;;;;;19.04;100.00;98137.25;5059438;28;20081;-59
2022/07/14 01:58:18;;;;;;;23.20;4.10;;;;;;;19.01;100.00;98132.19;5060468;28;20039;-58
2022/07/14 02:00:43;;;;;;;27.90;4.53;;;;;;;19.36;100.00;98131.38;5058209;28;20410;-59
2022/07/14 02:03:09;;;;;;;31.73;5.03;;;;;;;18.80;100.00;98126.66;5059131;28;20050;-58
2022/07/14 02:05:34;;;;;;;25.00;4.43;;;;;;;19.05;100.00;98123.06;5059345;28;20041;-58
2022/07/14 02:08:00;;;;;;;33.25;4.82;;;;;;;19.11;100.00;98121.75;5058863;28;20028;-59
2022/07/14 02:13:09;;;;;;;33.00;5.13;;;;;;;18.35;100.00;98122.84;5058835;28;20038;-58
2022/07/14 02:15:34;;;;;;;29.50;4.93;;;;;;;18.51;100.00;98120.81;5058842;28;20040;-57
2022/07/14 02:18:00;;;;;;;30.08;5.05;;;;;;;18.59;100.00;98120.25;5059220;28;20021;-59
2022/07/14 02:20:25;;;;;;;34.28;5.40;;;;;;;18.56;100.00;98126.59;5057379;28;20136;-58
2022/07/14 02:22:50;;;;;;;28.15;4.75;;;;;;;18.56;100.00;98121.31;5058116;28;20029;-58
2022/07/14 02:25:16;;;;;;;27.73;5.28;;;;;;;18.60;100.00;98128.09;5058505;28;20028;-59
2022/07/14 02:27:41;;;;;;;26.17;5.05;;;;;;;18.65;100.00;98125.94;5059421;28;20063;-57
2022/07/14 02:30:07;;;;;;;34.05;5.53;;;;;;;18.72;100.00;98125.50;5057378;28;20962;-58
2022/07/14 02:32:32;;;;;;;28.40;4.80;;;;;;;18.85;100.00;98131.63;5059087;28;20035;-58
2022/07/14 02:34:58;;;;;;;29.85;5.13;;;;;;;18.53;100.00;98128.59;5059405;28;20024;-58
2022/07/14 02:37:24;;;;;;;26.10;4.78;;;;;;;18.28;100.00;98133.84;5058585;28;20063;-58
2022/07/14 02:39:49;;;;;;;22.35;4.43;;;;;;;18.64;100.00;98140.09;5059411;28;20032;-57
2022/07/14 02:42:15;;;;;;;29.33;5.10;;;;;;;18.56;100.00;98145.06;5057109;28;20037;-58
2022/07/14 02:44:40;;;;;;;29.58;4.50;;;;;;;18.84;100.00;98148.44;5061544;28;20636;-57
2022/07/14 02:47:06;;;;;;;26.63;4.82;;;;;;;18.28;100.00;98149.69;5058365;28;20587;-57
2022/07/14 02:49:31;;;;;;;36.10;5.43;;;;;;;18.42;100.00;98146.06;5058378;28;20024;-58
2022/07/14 02:51:57;;;;;;;34.22;5.55;;;;;;;18.31;100.00;98148.63;5056251;28;20039;-57
2022/07/14 02:54:23;;;;;;;32.72;5.57;;;;;;;18.48;100.00;98152.72;5058126;28;20124;-58
2022/07/14 02:56:49;;;;;;;30.33;5.00;;;;;;;18.20;100.00;98141.47;5058255;28;20041;-59
2022/07/14 02:59:14;;;;;;;29.08;5.18;;;;;;;18.08;100.00;98142.31;5058824;28;20039;-58
2022/07/14 03:01:40;;;;;;;32.28;5.35;;;;;;;18.03;100.00;98153.19;5057650;28;20032;-57
2022/07/14 03:04:06;;;;;;;31.48;5.10;;;;;;;18.01;100.00;98154.25;5058503;28;20391;-57
2022/07/14 03:06:32;;;;;;;28.13;4.90;;;;;;;18.17;100.00;98152.22;5057493;28;20089;-58
2022/07/14 03:08:57;;;;;;;26.42;4.85;;;;;;;18.09;100.00;98157.22;5058549;28;20042;-59
2022/07/14 03:11:23;;;;;;;21.17;4.40;;;;;;;18.14;100.00;98147.19;5057151;28;20610;-58
2022/07/14 03:13:49;;;;;;;31.02;5.10;;;;;;;18.06;100.00;98145.06;5058125;28;20020;-59
2022/07/14 03:16:14;;;;;;;24.45;4.47;;;;;;;18.09;100.00;98151.94;5058116;28;20029;-58
2022/07/14 03:18:40;;;;;;;33.25;5.50;;;;;;;17.88;100.00;98160.38;5058003;28;20029;-58
2022/07/14 03:21:08;;;;;;;33.00;5.60;;;;;;;18.01;100.00;98156.88;5056791;28;20037;-58
2022/07/14 03:23:33;;;;;;;21.08;4.65;;;;;;;17.94;100.00;98150.34;5058810;28;20032;-57
2022/07/14 03:25:59;;;;;;;24.02;4.55;;;;;;;17.86;100.00;98153.50;5056932;28;20146;-58
2022/07/14 03:28:24;;;;;;;30.30;5.25;;;;;;;17.81;100.00;98151.16;5058750;28;20059;-58
2022/07/14 03:30:55;;;;;;;30.42;5.10;;;;;;;17.82;100.00;98160.75;5057377;28;20055;-57
2022/07/14 03:33:20;;;;;;;33.28;5.53;;;;;;;17.71;100.00;98150.91;5057790;28;20032;-58
2022/07/14 03:35:45;;;;;;;29.85;5.13;;;;;;;17.66;100.00;98155.69;5057138;28;20036;-58
2022/07/14 03:38:11;;;;;;;23.02;4.53;;;;;;;17.64;100.00;98154.09;5058845;28;20090;-57
2022/07/14 03:40:36;;;;;;;31.05;5.28;;;;;;;17.74;100.00;98155.16;5057427;28;20051;-58
2022/07/14 03:43:02;;;;;;;27.33;4.43;;;;;;;17.47;100.00;98156.06;5057512;28;20205;-57
2022/07/14 03:45:27;;;;;;;33.50;5.05;;;;;;;17.53;100.00;98158.31;5058320;28;20114;-59
2022/07/14 03:47:53;;;;;;;32.42;5.65;;;;;;;17.22;100.00;98154.22;5058315;28;20510;-58
2022/07/14 03:50:18;;;;;;;32.95;5.35;;;;;;;17.13;100.00;98154.81;5057972;28;20639;-58
2022/07/14 03:52:44;;;;;;;26.88;5.03;;;;;;;17.12;100.00;98147.84;5057854;28;20043;-57
2022/07/14 03:55:09;;;;;;;33.50;5.45;;;;;;;17.49;100.00;98145.41;5057708;28;20071;-58
2022/07/14 03:57:35;;;;;;;27.65;5.00;;;;;;;17.58;100.00;98151.88;5058518;28;20595;-58
2022/07/14 04:00:00;;;;;;;43.88;6.43;;;;;;;17.50;100.00;98150.59;5057924;28;20033;-57
2022/07/14 04:02:25;;;;;;;29.27;4.90;;;;;;;17.35;100.00;98154.25;5057280;28;20497;-58
2022/07/14 04:04:51;;;;;;;29.60;5.10;;;;;;;17.23;100.00;98160.31;5057984;28;20028;-58
2022/07/14 04:07:16;;;;;;;36.53;5.50;;;;;;;17.44;100.00;98153.66;5059748;28;20043;-57
2022/07/14 04:09:41;;;;;;;27.75;5.22;;;;;;;17.39;100.00;98160.13;5061926;28;20055;-57
2022/07/14 04:12:07;;;;;;;26.52;4.72;;;;;;;17.20;100.00;98155.25;5059850;28;20623;-58
2022/07/14 04:14:32;;;;;;;26.40;4.70;;;;;;;17.40;100.00;98152.13;5061152;28;20056;-57
2022/07/14 04:16:58;;;;;;;27.98;5.13;;;;;;;17.28;100.00;98155.59;5061138;28;20040;-58
2022/07/14 04:19:23;;;;;;;33.50;5.35;;;;;;;17.51;100.00;98149.63;5061208;28;20090;-57
2022/07/14 04:21:49;;;;;;;32.22;5.45;;;;;;;17.60;100.00;98149.97;5060282;28;20540;-57
2022/07/14 04:24:14;;;;;;;28.05;4.90;;;;;;;17.76;100.00;98158.53;5061672;28;20654;-58
2022/07/14 04:26:40;;;;;;;27.92;4.63;;;;;;;17.79;100.00;98153.06;5060883;28;20120;-58
2022/07/14 04:29:06;;;;;;;27.48;5.43;;;;;;;17.89;100.00;98159.41;5061625;28;20432;-59
2022/07/14 04:31:31;;;;;;;31.27;5.55;;;;;;;17.76;100.00;98161.19;5059240;28;20105;-57
2022/07/14 04:33:57;;;;;;;29.90;5.60;;;;;;;17.84;100.00;98158.84;5061421;28;20028;-57
2022/07/14 04:36:23;;;;;;;30.30;5.13;;;;;;;17.98;100.00;98157.13;5061674;28;20044;-58
2022/07/14 04:38:48;;;;;;;27.02;4.82;;;;;;;18.67;100.00;98158.41;5062370;28;20109;-58
2022/07/14 04:41:13;;;;;;;28.73;5.05;;;;;;;18.41;100.00;98154.09;5060043;28;20040;-57
2022/07/14 04:43:39;;;;;;;28.25;5.45;;;;;;;18.80;100.00;98162.78;5060598;28;20132;-57
2022/07/14 04:46:05;;;;;;;25.35;4.70;;;;;;;18.94;100.00;98162.66;5060829;28;20945;-58
2022/07/14 04:48:31;;;;;;;27.00;4.93;;;;;;;19.27;100.00;98161.13;5060838;28;20402;-59
2022/07/14 04:53:40;;;;;;;26.98;5.07;;;;;;;19.22;100.00;98165.91;5061299;28;20044;-57
2022/07/14 04:56:06;;;;;;;24.60;4.47;;;;;;;19.88;100.00;98163.63;5060635;28;20032;-57
2022/07/14 04:58:32;;;;;;;30.23;4.90;;;;;;;20.03;100.00;98158.97;5060888;28;20044;-58
2022/07/14 05:01:00;;;;;;;31.08;5.43;;;;;;;20.10;100.00;98168.13;5059130;28;20169;-57
2022/07/14 05:03:26;;;;;;;27.73;4.88;;;;;;;22.34;100.00;98164.06;5060798;28;20024;-58
2022/07/14 05:05:51;;;;;;;28.75;5.45;;;;;;;22.97;100.00;98165.66;5057119;28;20086;-57
2022/07/14 05:08:17;;;;;;;24.95;4.72;;;;;;;23.67;100.00;98169.06;5058367;28;20078;-59
2022/07/14 05:10:42;;;;;;;21.23;4.47;;;;;;;25.14;94.44;98159.56;5058732;28;20500;-58
2022/07/14 05:13:07;;;;;;;22.83;4.63;;;;;;;25.15;90.28;98161.25;5059909;28;20193;-58
2022/07/14 05:15:33;;;;;;;24.70;4.72;;;;;;;27.65;73.51;98146.22;5047175;28;20043;-59
2022/07/14 05:17:58;;;;;;;21.48;4.90;;;;;;;27.10;69.99;98143.09;5059676;28;20544;-58
2022/07/14 05:20:24;;;;;;;21.83;4.68;;;;;;;28.67;58.98;98146.50;5059157;28;20606;-59
2022/07/14 05:22:49;;;;;;;22.45;4.45;;;;;;;28.01;59.38;98156.56;5059783;28;20139;-58
2022/07/14 05:25:15;;;;;;;21.00;4.95;;;;;;;26.12;69.39;98159.59;5060991;28;20025;-58
2022/07/14 05:27:41;;;;;;;26.27;4.82;;;;;;;25.75;80.49;98141.09;5060246;28;20020;-59
2022/07/14 05:30:08;;;;;;;32.30;6.20;;;;;;;25.41;85.13;98155.19;5059365;28;20059;-58
2022/07/14 05:32:35;;;;;;;23.67;4.88;;;;;;;25.92;84.69;98150.94;5059424;28;20501;-58
2022/07/14 05:35:02;;;;;;;20.35;4.40;;;;;;;25.83;78.86;98154.53;5060683;28;20032;-58
2022/07/14 05:37:27;;;;;;;21.05;4.82;;;;;;;26.42;73.34;98159.25;5059579;28;20033;-58
2022/07/14 05:39:53;;;;;;;22.45;4.88;;;;;;;26.76;67.33;98161.09;5060252;28;20028;-58
2022/07/14 05:42:22;;;;;;;23.08;4.65;;;;;;;30.12;56.14;98156.56;5058029;28;20036;-59
2022/07/14 05:44:48;;;;;;;19.52;4.30;;;;;;;28.54;55.89;98146.22;5061343;28;20033;-59
2022/07/14 05:47:14;;;;;;;21.83;4.35;;;;;;;27.17;60.32;98158.53;5059172;28;20078;-59
2022/07/14 05:49:43;;;;;;;18.52;4.43;;;;;;;26.42;65.89;98143.22;5059848;28;20028;-58
2022/07/14 05:52:13;;;;;;;16.02;3.90;;;;;;;28.42;61.84;98137.69;5059175;28;20045;-58
2022/07/14 05:54:38;;;;;;;17.23;4.47;;;;;;;30.01;48.82;98124.75;5059773;28;20032;-59
2022/07/14 05:57:03;;;;;;;22.55;4.20;;;;;;;30.25;50.20;98129.03;5059114;28;20082;-58
2022/07/14 05:59:29;;;;;;;19.73;4.45;;;;;;;32.47;45.23;98140.78;5060096;28;20701;-59
2022/07/14 06:01:54;;;;;;;23.10;5.50;;;;;;;30.68;48.31;98140.00;5058437;28;20083;-59
2022/07/14 06:04:20;;;;;;;14.63;4.30;;;;;;;30.80;48.21;98138.47;5060557;28;20072;-58
2022/07/14 06:06:46;;;;;;;18.30;4.22;;;;;;;29.91;48.36;98133.09;5059168;28;20048;-59
2022/07/14 06:09:12;;;;;;;20.58;4.40;;;;;;;28.77;50.66;98136.41;5060366;28;20250;-59
2022/07/14 06:11:39;;;;;;;17.45;4.30;;;;;;;28.88;53.69;98137.84;5058044;28;20661;-58
2022/07/14 06:14:07;;;;;;;15.38;3.85;;;;;;;30.80;48.84;98132.25;5058683;28;20020;-58
2022/07/14 06:16:33;;;;;;;16.27;3.88;;;;;;;31.09;46.79;98132.19;5058311;28;20745;-58
2022/07/14 06:18:58;;;;;;;16.70;4.18;;;;;;;31.41;46.09;98131.88;5059092;28;20033;-58
2022/07/14 06:21:23;;;;;;;16.30;4.00;;;;;;;33.35;42.09;98123.06;5057874;28;20056;-59
2022/07/14 06:23:49;;;;;;;16.55;4.10;;;;;;;34.84;39.32;98118.06;5058682;28;20024;-59
2022/07/14 06:26:14;;;;;;;21.30;4.20;;;;;;;34.46;38.55;98116.94;5058332;28;20105;-60
2022/07/14 06:28:41;;;;;;;10.65;3.25;;;;;;;34.98;36.69;98114.25;5059502;28;20043;-59
2022/07/14 06:31:06;;;;;;;13.57;3.30;;;;;;;36.00;34.70;98116.00;5056521;28;20047;-59
2022/07/14 06:33:32;;;;;;;11.27;3.35;;;;;;;35.59;34.83;98115.50;5058762;28;20028;-58
2022/07/14 06:35:57;;;;;;;14.57;3.95;;;;;;;36.76;32.92;98109.34;5058391;28;20037;-59
2022/07/14 06:38:23;;;;;;;10.23;2.80;;;;;;;38.06;31.14;98097.91;5058743;28;20024;-59
2022/07/14 06:40:48;;;;;;;10.48;3.53;;;;;;;37.74;32.43;98106.44;5057402;28;20056;-59
2022/07/14 06:43:13;;;;;;;11.82;3.50;;;;;;;37.67;31.79;98103.84;5059909;28;20058;-59
2022/07/14 06:45:39;;;;;;;13.00;3.50;;;;;;;37.98;31.54;98107.28;5058525;28;20051;-59
2022/07/14 06:48:05;;;;;;;11.05;3.80;;;;;;;38.68;31.58;98113.72;5058510;28;20699;-59
2022/07/14 06:50:31;;;;;;;14.25;3.40;;;;;;;34.67;34.76;98106.88;5057757;28;20098;-59
2022/07/14 06:52:56;;;;;;;8.40;2.97;;;;;;;38.14;31.92;98106.59;5057709;28;20036;-60
2022/07/14 06:55:21;;;;;;;13.27;3.50;;;;;;;37.39;30.19;98110.75;5058251;28;20082;-59
2022/07/14 06:57:47;;;;;;;9.48;3.00;;;;;;;38.24;29.78;98102.41;5058892;28;20024;-60
2022/07/14 07:00:13;;;;;;;12.43;3.70;;;;;;;37.93;30.47;98101.72;5057215;28;20126;-60
2022/07/14 07:02:40;;;;;;;8.18;3.08;;;;;;;37.80;30.43;98100.88;5057746;28;20104;-57
2022/07/14 07:07:50;;;;;;;8.48;3.20;;;;;;;38.15;27.49;98094.59;5058546;28;20086;-60
2022/07/14 07:10:16;;;;;;;9.98;3.10;;;;;;;38.54;27.84;98099.50;5057603;28;20036;-59
2022/07/14 07:12:41;;;;;;;9.30;3.08;;;;;;;37.73;29.05;98089.28;5057761;28;20472;-60
2022/07/14 07:15:07;;;;;;;11.40;2.97;;;;;;;39.21;27.21;98089.88;5058104;28;20566;-59
2022/07/14 07:17:33;;;;;;;8.50;2.80;;;;;;;37.55;29.00;98086.63;5034446;28;20035;-60
2022/07/14 07:19:58;;;;;;;13.77;3.75;;;;;;;36.62;29.44;98097.78;5057820;28;20082;-61
2022/07/14 07:22:24;;;;;;;8.02;2.88;;;;;;;35.16;31.00;98080.13;5057321;28;20115;-58
2022/07/14 07:24:49;;;;;;;9.93;2.90;;;;;;;35.58;31.77;98075.03;5058016;28;20544;-57
2022/07/14 07:27:14;;;;;;;9.48;2.92;;;;;;;35.13;32.77;98074.09;5057380;28;20764;-58
2022/07/14 07:29:40;;;;;;;8.63;3.08;;;;;;;36.09;31.02;98072.03;5058092;28;20102;-57
2022/07/14 07:32:05;;;;;;;9.30;3.00;;;;;;;34.66;33.26;98068.09;5057244;28;20043;-58
2022/07/14 07:34:31;;;;;;;13.63;3.40;;;;;;;35.73;31.47;98066.59;5057821;28;20689;-59
2022/07/14 07:36:56;;;;;;;11.95;3.28;;;;;;;34.05;33.00;98068.53;5057050;28;20041;-57
2022/07/14 07:39:21;;;;;;;10.95;3.10;;;;;;;34.32;33.23;98072.84;5058572;28;20147;-58
2022/07/14 07:41:47;;;;;;;11.18;3.38;;;;;;;33.55;34.05;98069.00;5058646;28;20552;-57
2022/07/14 07:44:12;;;;;;;13.85;3.33;;;;;;;33.79;33.38;98072.94;5062141;28;20059;-57
2022/07/14 07:46:38;;;;;;;11.95;3.38;;;;;;;32.67;37.40;98063.66;5061557;28;20044;-59
2022/07/14 07:49:03;;;;;;;10.65;3.28;;;;;;;32.14;39.47;98075.84;5062079;28;20217;-57
2022/07/14 07:51:28;;;;;;;12.85;3.28;;;;;;;33.04;38.62;98068.50;5060390;28;20055;-58
2022/07/14 07:53:54;;;;;;;10.90;3.25;;;;;;;32.55;37.39;98060.66;5061722;28;20202;-57
2022/07/14 07:56:20;;;;;;;14.38;3.53;;;;;;;31.42;38.42;98058.09;5061746;28;20147;-57
2022/07/14 07:58:45;;;;;;;15.02;3.50;;;;;;;31.06;37.89;98056.31;5061969;28;20017;-57
2022/07/14 08:01:10;;;;;;;12.30;3.33;;;;;;;32.21;36.99;98055.13;5061590;28;20040;-57
2022/07/14 08:03:36;;;;;;;11.88;3.20;;;;;;;33.19;36.31;98051.31;5060747;28;20387;-58
2022/07/14 08:06:01;;;;;;;18.10;3.70;;;;;;;34.14;34.28;98042.91;5060346;28;20142;-57
2022/07/14 08:08:26;;;;;;;16.45;3.60;;;;;;;36.17;30.59;98049.19;5060890;28;20034;-58
2022/07/14 08:10:52;;;;;;;11.05;3.38;;;;;;;36.34;30.55;98051.31;5060773;28;20036;-59
2022/07/14 08:13:18;;;;;;;10.35;3.10;;;;;;;37.37;29.33;98042.16;5060817;28;20530;-58
2022/07/14 08:15:43;;;;;;;10.35;3.03;;;;;;;36.39;29.84;98043.31;5060316;28;20360;-58
2022/07/14 08:18:09;;;;;;;9.43;3.05;;;;;;;37.79;28.98;98024.88;5040124;28;20040;-58
2022/07/14 08:20:35;;;;;;;8.85;2.95;;;;;;;35.93;31.01;98022.97;5060379;28;20036;-58
2022/07/14 08:23:00;;;;;;;10.63;3.45;;;;;;;35.01;32.07;98024.34;5059776;28;20032;-58
2022/07/14 08:25:26;;;;;;;11.68;3.40;;;;;;;35.45;34.04;98019.84;5061090;28;20078;-59
2022/07/14 08:27:52;;;;;;;13.80;3.47;;;;;;;33.51;34.36;98011.78;5060725;28;20118;-58
2022/07/14 08:30:18;;;;;;;14.50;3.67;;;;;;;34.20;33.06;98015.00;5060178;28;20044;-58
2022/07/14 08:32:51;;;;;;;11.95;3.15;;;;;;;36.47;30.62;98000.38;5060644;28;20039;-59
2022/07/14 08:35:19;;;;;;;16.08;3.70;;;;;;;35.97;31.48;98013.31;5059394;28;20028;-59
2022/07/14 08:37:45;;;;;;;14.75;3.38;;;;;;;35.26;34.27;98004.59;5060960;28;20485;-60
2022/07/14 08:40:14;;;;;;;23.35;4.45;;;;;;;34.01;33.51;97994.25;5059454;28;20040;-59
2022/07/14 08:42:44;;;;;;;16.05;3.60;;;;;;;35.19;32.78;97995.69;5060303;28;20516;-58
2022/07/14 08:45:12;;;;;;;10.90;3.67;;;;;;;33.61;36.51;97990.53;5060979;28;20054;-59
2022/07/14 08:47:38;;;;;;;11.00;3.33;;;;;;;33.86;34.73;97981.78;5060986;28;20111;-59
2022/07/14 08:50:05;;;;;;;23.77;4.63;;;;;;;32.47;35.86;97983.41;5059863;28;20243;-58
2022/07/14 08:52:32;;;;;;;12.88;3.60;;;;;;;33.39;33.83;97975.63;5058664;28;20256;-60
2022/07/14 08:54:57;;;;;;;10.85;3.30;;;;;;;34.86;33.42;97969.66;5060810;28;20545;-59
2022/07/14 08:57:22;;;;;;;14.50;3.40;;;;;;;33.60;33.29;97969.13;5060200;28;20055;-59
2022/07/14 08:59:48;;;;;;;14.35;3.58;;;;;;;33.30;35.31;97963.38;5060442;28;20031;-60
2022/07/14 09:02:13;;;;;;;12.50;3.45;;;;;;;33.23;34.41;97955.25;5060028;28;20039;-59
2022/07/14 09:04:43;;;;;;;13.93;3.65;;;;;;;32.54;35.31;97962.66;5059856;28;20033;-60
2022/07/14 09:07:09;;;;;;;13.05;3.40;;;;;;;33.35;34.44;97964.41;5059660;28;20044;-59
2022/07/14 09:09:34;;;;;;;11.50;3.13;;;;;;;32.70;35.46;97956.06;5060545;28;20097;-59
2022/07/14 09:12:08;;;;;;;13.48;3.25;;;;;;;32.55;35.16;97956.22;5058956;28;20060;-58
2022/07/14 09:17:49;;;;;;;11.32;3.25;;;;;;;31.90;35.93;97950.38;5059671;28;20198;-58
2022/07/14 09:20:14;;;;;;;13.25;3.25;;;;;;;32.65;35.06;97942.34;5059989;28;20028;-58
2022/07/14 09:22:41;;;;;;;12.20;3.60;;;;;;;32.56;35.06;97938.16;5060272;28;20090;-59
2022/07/14 09:25:10;;;;;;;15.00;3.17;;;;;;;34.31;34.34;97940.41;5060079;28;20024;-58
2022/07/14 09:27:37;;;;;;;12.07;3.40;;;;;;;34.98;32.24;97938.09;5059424;28;20361;-58
2022/07/14 09:30:04;;;;;;;16.45;3.60;;;;;;;35.35;32.73;97930.06;5059405;28;20028;-58
2022/07/14 09:32:51;;;;;;;12.48;3.50;;;;;;;37.64;31.53;97924.69;5059590;28;20163;-59
2022/07/14 09:35:20;;;;;;;9.20;2.75;;;;;;;39.13;29.45;97919.28;5060051;28;20098;-58
2022/07/14 09:37:46;;;;;;;9.57;2.90;;;;;;;37.56;31.25;97906.81;5059186;28;20025;-58
2022/07/14 09:40:30;;;;;;;13.20;3.78;;;;;;;37.68;28.68;97909.56;5059658;28;20032;-58
2022/07/14 09:43:00;;;;;;;12.32;3.13;;;;;;;36.06;30.30;97911.50;5060078;28;20102;-59
2022/07/14 09:45:34;;;;;;;14.63;3.37;;;;;;;37.37;28.36;97902.63;5059588;28;20025;-59
2022/07/14 09:48:08;;;;;;;10.55;3.40;;;;;;;36.46;29.13;97897.41;5059186;28;20266;-60
2022/07/14 09:50:49;;;;;;;10.40;3.10;;;;;;;37.83;28.57;97878.25;5058807;28;20068;-58
2022/07/14 09:53:31;;;;;;;14.52;3.00;;;;;;;36.34;30.50;97882.94;5059509;28;20039;-58
2022/07/14 09:56:09;;;;;;;10.98;3.13;;;;;;;36.09;30.55;97875.78;5059018;28;20635;-58
2022/07/14 09:58:51;;;;;;;11.60;3.10;;;;;;;35.65;30.36;97865.03;5058683;28;20028;-58
2022/07/14 10:01:20;;;;;;;13.75;3.25;;;;;;;34.98;31.30;97874.91;5058103;28;20097;-58
2022/07/14 10:03:47;;;;;;;16.48;3.33;;;;;;;34.65;31.03;97871.44;5058393;28;20032;-58
2022/07/14 10:06:14;;;;;;;10.70;3.10;;;;;;;37.49;29.33;97868.03;5058836;28;20047;-58
2022/07/14 10:08:45;;;;;;;16.90;3.15;;;;;;;36.43;29.26;97867.97;5059442;28;20038;-58
2022/07/14 10:11:11;;;;;;;12.13;3.28;;;;;;;37.05;28.57;97860.25;5057642;28;20036;-59
2022/07/14 10:13:38;;;;;;;10.18;3.10;;;;;;;37.53;28.79;97852.06;5058373;28;20036;-58
2022/07/14 10:16:04;;;;;;;12.88;2.78;;;;;;;39.05;26.71;97851.56;5059217;28;20048;-58
2022/07/14 10:18:29;;;;;;;9.68;2.90;;;;;;;37.95;27.24;97844.47;5058807;28;20020;-58
2022/07/14 10:20:57;;;;;;;12.35;2.80;;;;;;;39.78;26.34;97851.41;5058026;28;20533;-58
2022/07/14 10:23:23;;;;;;;9.68;2.95;;;;;;;38.44;26.63;97838.56;5058974;28;20020;-58
2022/07/14 10:25:54;;;;;;;12.27;2.90;;;;;;;36.97;27.97;97844.31;5057926;28;20532;-58
2022/07/14 10:28:21;;;;;;;7.65;2.42;;;;;;;37.95;27.16;97843.66;5059460;28;20036;-58
2022/07/14 10:30:58;;;;;;;12.13;3.10;;;;;;;38.59;26.79;97842.66;5057280;28;20466;-60
2022/07/14 10:33:28;;;;;;;8.52;2.78;;;;;;;37.78;27.12;97839.00;5059308;28;20031;-58
2022/07/14 10:36:03;;;;;;;8.93;2.90;;;;;;;37.75;26.44;97836.75;5058698;28;20051;-58
2022/07/14 10:38:28;;;;;;;17.08;3.40;;;;;;;35.92;28.86;97831.31;5058904;28;20866;-59
2022/07/14 10:41:10;;;;;;;12.97;3.30;;;;;;;37.28;28.22;97822.44;5059374;28;20615;-59
2022/07/14 10:43:57;;;;;;;10.02;2.85;;;;;;;38.64;27.19;97826.38;5058621;28;20061;-60
2022/07/14 10:46:44;;;;;;;12.13;2.85;;;;;;;39.46;25.58;97811.19;5058951;28;20048;-61
2022/07/14 10:49:11;;;;;;;13.88;3.50;;;;;;;38.45;26.01;97823.03;5058706;28;20605;-58
2022/07/14 10:51:52;;;;;;;8.85;2.75;;;;;;;39.81;25.12;97804.50;5057109;28;20092;-58
2022/07/14 10:54:29;;;;;;;14.38;3.40;;;;;;;37.73;25.90;97791.81;5058594;28;20494;-58
2022/07/14 10:57:10;;;;;;;13.55;3.45;;;;;;;37.85;27.54;97791.75;5057881;28;20137;-58
2022/07/14 10:59:36;;;;;;;14.27;3.23;;;;;;;38.34;25.91;97801.09;5058966;28;20020;-58
2022/07/14 11:02:13;;;;;;;16.70;3.45;;;;;;;38.09;26.82;97796.03;5056736;28;20727;-58
2022/07/14 11:05:03;;;;;;;10.85;3.05;;;;;;;39.18;25.45;97785.72;5058704;28;20111;-59
2022/07/14 11:07:43;;;;;;;13.90;3.40;;;;;;;36.75;26.60;97780.78;5057605;28;20049;-58
2022/07/14 11:10:14;;;;;;;22.23;4.30;;;;;;;37.94;26.77;97793.84;5056068;28;20024;-59
2022/07/14 11:13:16;;;;;;;17.45;3.50;;;;;;;37.20;27.56;97782.84;5058473;28;20105;-58
2022/07/14 11:15:45;;;;;;;15.68;3.38;;;;;;;38.57;25.63;97774.78;5045995;28;20506;-58
2022/07/14 11:18:26;;;;;;;17.80;3.47;;;;;;;37.86;27.49;97771.63;5063543;28;20117;-59
2022/07/14 11:20:58;;;;;;;13.25;2.92;;;;;;;37.11;27.21;97767.94;5062220;28;20083;-60
2022/07/14 11:23:34;;;;;;;15.50;3.42;;;;;;;37.74;27.27;97764.38;5061881;28;20360;-58
2022/07/14 11:26:32;;;;;;;12.60;3.30;;;;;;;38.14;26.71;97760.75;5061957;28;20151;-58
2022/07/14 11:28:58;;;;;;;17.08;3.42;;;;;;;37.01;27.50;97757.69;5062064;28;20031;-58
2022/07/14 11:31:24;;;;;;;19.30;3.67;;;;;;;36.26;27.99;97749.19;5061268;28;20044;-58
2022/07/14 11:37:07;;;;;;;;;;;;;;;36.76;27.38;97733.50;5061721;28;20051;-60